Time;durP1;ratioP1;P1;durP2;ratioP2;P2;SDS_P1;SDS_P2;PMS_P1;PMS_P2;Temp;Humidity;BMP_temperature;BMP_pressure;BME280_temperature;BME280_humidity;BME280_pressure;Samples;Min_cycle;Max_cycle;Signal;HPM_P1;HPM_P2
2022/12/04 07:01:49;;;;;;;;;43.50;29.75;;;;;;;;4987434;24;46240;-70
2022/12/04 07:04:15;;;;;;;;;33.50;30.25;;;;;;;;4708135;30;45369;-70
2022/12/04 07:06:40;;;;;;;;;34.50;29.25;;;;;;;;4711388;30;45337;-71
2022/12/04 07:09:06;;;;;;;;;32.25;29.00;;;;;;;;4709914;30;45529;-70
2022/12/04 07:11:33;;;;;;;;;42.50;35.75;;;;;;;;4705300;30;45378;-71
2022/12/04 07:13:58;;;;;;;;;37.00;30.75;;;;;;;;4721092;30;45338;-71
2022/12/04 07:16:24;;;;;;;;;45.50;33.25;;;;;;;;4704504;30;45260;-71
2022/12/04 07:18:50;;;;;;;;;27.25;23.75;;;;;;;;4708827;30;46305;-70
2022/12/04 07:21:17;;;;;;;;;31.75;30.50;;;;;;;;4712629;30;45562;-71
2022/12/04 07:23:42;;;;;;;;;40.00;31.75;;;;;;;;4717600;30;45305;-70
2022/12/04 07:26:09;;;;;;;;;39.50;30.00;;;;;;;;4716297;30;45830;-70
2022/12/04 07:28:35;;;;;;;;;37.50;31.50;;;;;;;;4714484;30;45431;-71
2022/12/04 07:31:08;;;;;;;;;46.75;36.00;;;;;;;;4707040;30;45464;-70
2022/12/04 07:33:33;;;;;;;;;36.25;33.25;;;;;;;;4714488;30;45364;-70
2022/12/04 07:35:59;;;;;;;;;32.00;31.00;;;;;;;;4703290;30;45538;-70
2022/12/04 07:38:25;;;;;;;;;37.25;35.00;;;;;;;;4708976;30;46262;-70
2022/12/04 07:40:50;;;;;;;;;43.50;33.75;;;;;;;;4717556;30;45434;-69
2022/12/04 07:43:15;;;;;;;;;46.25;37.25;;;;;;;;4719485;30;45494;-69
2022/12/04 07:45:40;;;;;;;;;40.25;24.50;;;;;;;;4720692;30;45479;-70
2022/12/04 07:48:05;;;;;;;;;42.00;33.00;;;;;;;;4718863;30;46669;-70
2022/12/04 07:50:31;;;;;;;;;43.25;35.75;;;;;;;;4719638;30;45419;-70
2022/12/04 07:52:56;;;;;;;;;41.75;35.25;;;;;;;;4719111;30;45944;-70
2022/12/04 07:55:21;;;;;;;;;58.25;39.50;;;;;;;;4719769;30;45480;-70
2022/12/04 07:57:46;;;;;;;;;41.00;32.00;;;;;;;;4713856;30;45277;-71
2022/12/04 08:00:12;;;;;;;;;46.00;35.00;;;;;;;;4711994;30;45499;-69
2022/12/04 08:02:37;;;;;;;;;39.50;36.25;;;;;;;;4703444;30;45444;-70
2022/12/04 08:05:02;;;;;;;;;42.50;30.75;;;;;;;;4703170;30;45452;-72
2022/12/04 08:07:27;;;;;;;;;47.00;37.25;;;;;;;;4710976;30;46516;-64
2022/12/04 08:09:53;;;;;;;;;41.75;28.00;;;;;;;;4710913;30;45158;-72
2022/12/04 08:12:18;;;;;;;;;39.25;33.00;;;;;;;;4714720;30;45307;-67
2022/12/04 08:14:43;;;;;;;;;32.50;29.75;;;;;;;;4718682;30;45280;-65
2022/12/04 08:17:09;;;;;;;;;38.25;33.00;;;;;;;;4713417;30;45994;-65
2022/12/04 08:19:34;;;;;;;;;45.75;32.75;;;;;;;;4718723;30;45945;-65
2022/12/04 08:21:59;;;;;;;;;37.25;31.50;;;;;;;;4716341;30;45562;-65
2022/12/04 08:24:24;;;;;;;;;33.00;25.50;;;;;;;;4713629;30;45180;-65
2022/12/04 08:26:50;;;;;;;;;38.00;29.75;;;;;;;;4717614;30;46764;-67
2022/12/04 08:29:15;;;;;;;;;39.50;31.25;;;;;;;;4708342;30;45486;-66
2022/12/04 08:31:40;;;;;;;;;45.25;36.25;;;;;;;;4718966;30;45279;-66
2022/12/04 08:34:06;;;;;;;;;38.25;31.25;;;;;;;;4710411;30;45500;-65
2022/12/04 08:36:31;;;;;;;;;46.25;31.00;;;;;;;;4716265;30;45671;-66
2022/12/04 08:38:57;;;;;;;;;37.25;32.50;;;;;;;;4711165;30;45514;-66
2022/12/04 08:41:22;;;;;;;;;40.25;35.25;;;;;;;;4711176;30;45273;-65
2022/12/04 08:43:49;;;;;;;;;40.75;34.25;;;;;;;;4711515;30;45575;-65
2022/12/04 08:46:14;;;;;;;;;40.50;32.25;;;;;;;;4717484;30;46063;-66
2022/12/04 08:48:40;;;;;;;;;45.50;36.00;;;;;;;;4715422;30;45419;-65
2022/12/04 08:51:08;;;;;;;;;41.50;36.50;;;;;;;;4715109;30;45902;-68
2022/12/04 08:53:35;;;;;;;;;37.75;32.75;;;;;;;;4712789;30;45400;-65
2022/12/04 08:56:00;;;;;;;;;41.75;30.75;;;;;;;;4718053;30;46172;-65
2022/12/04 08:58:25;;;;;;;;;45.75;36.00;;;;;;;;4717472;30;45292;-65
2022/12/04 09:00:50;;;;;;;;;35.75;28.00;;;;;;;;4719953;30;45297;-66
2022/12/04 09:03:17;;;;;;;;;44.00;37.00;;;;;;;;4715593;30;45516;-66
2022/12/04 09:05:44;;;;;;;;;38.25;28.50;;;;;;;;4718098;30;46282;-66
2022/12/04 09:08:10;;;;;;;;;45.00;37.75;;;;;;;;4715999;30;45357;-66
2022/12/04 09:10:35;;;;;;;;;42.25;33.00;;;;;;;;4718000;30;45439;-66
2022/12/04 09:13:00;;;;;;;;;41.00;32.75;;;;;;;;4716082;30;45606;-66
2022/12/04 09:15:26;;;;;;;;;53.50;39.75;;;;;;;;4717317;30;46204;-66
2022/12/04 09:17:51;;;;;;;;;54.25;40.00;;;;;;;;4716299;30;45304;-66
2022/12/04 09:20:16;;;;;;;;;43.00;33.25;;;;;;;;4715589;30;45629;-66
2022/12/04 09:22:41;;;;;;;;;48.00;36.00;;;;;;;;4706641;30;45741;-66
2022/12/04 09:25:07;;;;;;;;;49.50;36.25;;;;;;;;4710075;30;46411;-65
2022/12/04 09:27:36;;;;;;;;;38.75;36.00;;;;;;;;4717065;30;45344;-67
2022/12/04 09:30:01;;;;;;;;;44.50;36.00;;;;;;;;4704194;30;45780;-65
2022/12/04 09:32:26;;;;;;;;;40.75;34.00;;;;;;;;4716119;30;45561;-66
2022/12/04 09:34:52;;;;;;;;;51.75;36.50;;;;;;;;4708067;30;46210;-66
2022/12/04 09:37:17;;;;;;;;;47.75;34.00;;;;;;;;4721728;30;45323;-65
2022/12/04 09:39:42;;;;;;;;;48.50;36.25;;;;;;;;4725276;30;45382;-63
2022/12/04 09:42:15;;;;;;;;;36.50;35.00;;;;;;;;4714855;30;45757;-65
2022/12/04 09:45:10;;;;;;;;;44.50;36.00;;;;;;;;4708566;30;46420;-66
2022/12/04 09:47:37;;;;;;;;;45.25;37.00;;;;;;;;4700771;30;45352;-66
2022/12/04 09:50:08;;;;;;;;;44.75;31.75;;;;;;;;4713687;30;45451;-65
2022/12/04 09:52:46;;;;;;;;;43.00;36.00;;;;;;;;4713555;30;45588;-65
2022/12/04 09:55:18;;;;;;;;;45.00;34.75;;;;;;;;4719588;30;46209;-65
2022/12/04 09:57:46;;;;;;;;;48.50;36.50;;;;;;;;4711464;30;45281;-64
2022/12/04 10:00:15;;;;;;;;;41.50;37.25;;;;;;;;4717273;30;45299;-63
2022/12/04 10:02:42;;;;;;;;;43.00;38.25;;;;;;;;4713186;30;45750;-62
2022/12/04 10:05:14;;;;;;;;;45.25;36.00;;;;;;;;4714015;30;46918;-62
2022/12/04 10:07:44;;;;;;;;;40.00;35.00;;;;;;;;4711956;30;45447;-62
2022/12/04 10:10:14;;;;;;;;;50.75;38.75;;;;;;;;4715380;30;45277;-62
2022/12/04 10:12:43;;;;;;;;;42.75;36.00;;;;;;;;4711140;30;45638;-62
2022/12/04 10:15:22;;;;;;;;;45.25;37.50;;;;;;;;4715071;30;47165;-63
2022/12/04 10:18:05;;;;;;;;;42.50;36.00;;;;;;;;4711686;30;45383;-63
2022/12/04 10:20:45;;;;;;;;;51.00;38.00;;;;;;;;4711739;30;45514;-63
2022/12/04 10:23:18;;;;;;;;;47.50;35.00;;;;;;;;4706455;30;45384;-62
2022/12/04 10:25:43;;;;;;;;;36.25;34.50;;;;;;;;4709948;30;47475;-63
2022/12/04 10:28:15;;;;;;;;;37.25;26.75;;;;;;;;4714820;30;45440;-63
2022/12/04 10:30:42;;;;;;;;;41.50;35.00;;;;;;;;4710741;30;45292;-62
2022/12/04 10:33:10;;;;;;;;;49.50;38.25;;;;;;;;4714285;30;45452;-63
2022/12/04 10:35:36;;;;;;;;;47.25;38.50;;;;;;;;4711004;30;45440;-63
2022/12/04 10:38:22;;;;;;;;;55.75;38.75;;;;;;;;4716413;30;45409;-63
2022/12/04 10:40:51;;;;;;;;;47.00;37.75;;;;;;;;4716274;30;45246;-63
2022/12/04 10:43:31;;;;;;;;;43.50;36.00;;;;;;;;4713632;30;45262;-63
2022/12/04 10:45:57;;;;;;;;;46.00;38.25;;;;;;;;4711290;30;46367;-63
2022/12/04 10:48:25;;;;;;;;;46.00;38.00;;;;;;;;4714082;30;45281;-63
2022/12/04 10:50:50;;;;;;;;;48.75;34.75;;;;;;;;4719709;30;45368;-63
2022/12/04 10:53:18;;;;;;;;;51.25;39.00;;;;;;;;4718866;30;45245;-63
2022/12/04 10:55:43;;;;;;;;;63.75;49.00;;;;;;;;4721492;30;46405;-63
2022/12/04 10:58:16;;;;;;;;;63.00;46.50;;;;;;;;4707924;30;45361;-63
2022/12/04 11:00:44;;;;;;;;;56.00;39.50;;;;;;;;4720485;30;45568;-63
2022/12/04 11:03:21;;;;;;;;;54.50;42.00;;;;;;;;4718251;30;45415;-63
2022/12/04 11:05:54;;;;;;;;;54.75;40.75;;;;;;;;4720171;30;45790;-63
2022/12/04 11:08:24;;;;;;;;;52.50;38.50;;;;;;;;4711281;30;45785;-63
2022/12/04 11:11:22;;;;;;;;;55.00;39.00;;;;;;;;4709856;30;45245;-63
2022/12/04 11:13:47;;;;;;;;;53.75;40.50;;;;;;;;4664014;30;45768;-63
2022/12/04 11:16:31;;;;;;;;;56.00;41.00;;;;;;;;4718423;30;46933;-63
2022/12/04 11:18:57;;;;;;;;;45.00;37.25;;;;;;;;4708540;30;45839;-63
2022/12/04 11:21:24;;;;;;;;;63.25;44.00;;;;;;;;4713709;30;45384;-63
2022/12/04 11:23:50;;;;;;;;;54.50;42.00;;;;;;;;4705636;30;45372;-63
2022/12/04 11:26:17;;;;;;;;;59.00;44.75;;;;;;;;4711878;30;45516;-63
2022/12/04 11:28:49;;;;;;;;;50.25;33.25;;;;;;;;4719252;30;45178;-63
2022/12/04 11:31:17;;;;;;;;;45.50;37.75;;;;;;;;4704384;30;45595;-63
2022/12/04 11:33:44;;;;;;;;;53.00;43.50;;;;;;;;4715868;30;45337;-63
2022/12/04 11:36:15;;;;;;;;;54.50;40.50;;;;;;;;4704185;30;46313;-62
2022/12/04 11:38:40;;;;;;;;;53.50;43.25;;;;;;;;4719654;30;45392;-62
2022/12/04 11:41:05;;;;;;;;;55.50;39.50;;;;;;;;4721385;30;45300;-63
2022/12/04 11:43:34;;;;;;;;;48.25;37.25;;;;;;;;4716560;30;45368;-63
2022/12/04 11:46:04;;;;;;;;;47.25;39.00;;;;;;;;4703630;30;46044;-63
2022/12/04 11:48:29;;;;;;;;;58.75;39.75;;;;;;;;4708766;30;45466;-63
2022/12/04 11:51:13;;;;;;;;;56.50;41.00;;;;;;;;4711032;30;45437;-63
2022/12/04 11:53:42;;;;;;;;;50.25;38.75;;;;;;;;4711083;30;45624;-64
2022/12/04 11:56:20;;;;;;;;;46.75;38.00;;;;;;;;4716660;30;46223;-61
2022/12/04 11:58:54;;;;;;;;;52.25;42.00;;;;;;;;4713699;30;45428;-61
2022/12/04 12:01:37;;;;;;;;;53.00;41.00;;;;;;;;4711884;30;45490;-62
2022/12/04 12:04:21;;;;;;;;;41.25;35.25;;;;;;;;4719590;30;45447;-62
2022/12/04 12:07:05;;;;;;;;;54.75;43.25;;;;;;;;4705308;30;46233;-61
2022/12/04 12:09:37;;;;;;;;;49.50;38.00;;;;;;;;4707466;30;45529;-62
2022/12/04 12:12:34;;;;;;;;;49.25;38.25;;;;;;;;4700039;30;45522;-62
2022/12/04 12:15:25;;;;;;;;;54.75;45.00;;;;;;;;4670532;30;45784;-62
2022/12/04 12:18:05;;;;;;;;;55.00;41.00;;;;;;;;4709997;30;45649;-62
2022/12/04 12:20:39;;;;;;;;;57.00;44.75;;;;;;;;4714246;30;45442;-62
2022/12/04 12:23:08;;;;;;;;;54.00;44.00;;;;;;;;4717034;30;45425;-62
2022/12/04 12:25:51;;;;;;;;;49.50;40.25;;;;;;;;4708170;30;45572;-62
2022/12/04 12:28:33;;;;;;;;;53.25;40.25;;;;;;;;4716575;30;46135;-61
2022/12/04 12:31:12;;;;;;;;;52.50;41.00;;;;;;;;4710592;30;45347;-61
2022/12/04 12:33:56;;;;;;;;;63.75;44.25;;;;;;;;4696306;30;45521;-63
2022/12/04 12:36:23;;;;;;;;;56.25;42.00;;;;;;;;4713782;30;45686;-62
2022/12/04 12:39:21;;;;;;;;;48.00;38.50;;;;;;;;4717919;30;46344;-61
2022/12/04 12:41:50;;;;;;;;;54.50;38.50;;;;;;;;4670722;30;45554;-61
2022/12/04 12:44:18;;;;;;;;;58.50;44.50;;;;;;;;4717451;30;45443;-62
2022/12/04 12:46:48;;;;;;;;;58.00;44.00;;;;;;;;4716451;30;46595;-61
2022/12/04 12:49:30;;;;;;;;;53.50;41.00;;;;;;;;4714787;30;47057;-61
2022/12/04 12:52:05;;;;;;;;;54.50;38.25;;;;;;;;4711108;30;45425;-61
2022/12/04 12:54:36;;;;;;;;;61.00;43.25;;;;;;;;4704521;30;45443;-62
2022/12/04 12:57:04;;;;;;;;;57.25;42.25;;;;;;;;4714736;30;45451;-61
2022/12/04 12:59:31;;;;;;;;;50.25;36.25;;;;;;;;4707431;30;47039;-62
2022/12/04 13:02:01;;;;;;;;;48.00;39.75;;;;;;;;4707569;30;45569;-60
2022/12/04 13:04:33;;;;;;;;;41.25;36.75;;;;;;;;4714701;30;45431;-60
2022/12/04 13:07:05;;;;;;;;;61.50;41.50;;;;;;;;4717595;30;45510;-60
2022/12/04 13:09:32;;;;;;;;;55.00;41.50;;;;;;;;4712546;30;46160;-60
2022/12/04 13:11:59;;;;;;;;;55.75;42.75;;;;;;;;4717534;30;45522;-60
2022/12/04 13:14:24;;;;;;;;;52.75;41.50;;;;;;;;4718429;30;45471;-60
2022/12/04 13:17:00;;;;;;;;;53.50;42.25;;;;;;;;4710084;30;45428;-60
2022/12/04 13:19:32;;;;;;;;;50.75;39.50;;;;;;;;4717856;30;45434;-60
2022/12/04 13:22:00;;;;;;;;;62.00;46.00;;;;;;;;4709313;30;45503;-60
2022/12/04 13:24:44;;;;;;;;;59.25;45.75;;;;;;;;4712323;30;45517;-60
2022/12/04 13:27:12;;;;;;;;;59.25;41.50;;;;;;;;4713937;30;45692;-60
2022/12/04 13:29:50;;;;;;;;;52.50;40.75;;;;;;;;4717195;30;45301;-60
2022/12/04 13:32:39;;;;;;;;;54.25;42.00;;;;;;;;4717098;30;45371;-60
2022/12/04 13:35:14;;;;;;;;;49.50;42.25;;;;;;;;4666639;30;45576;-60
2022/12/04 13:37:48;;;;;;;;;58.50;46.50;;;;;;;;4707575;30;45438;-60
2022/12/04 13:40:19;;;;;;;;;50.50;41.00;;;;;;;;4718446;30;46135;-60
2022/12/04 13:42:44;;;;;;;;;58.50;45.25;;;;;;;;4716629;30;45614;-60
2022/12/04 13:45:11;;;;;;;;;51.75;39.50;;;;;;;;4709998;30;45294;-60
2022/12/04 13:47:37;;;;;;;;;55.50;45.00;;;;;;;;4727712;30;45527;-60
2022/12/04 13:50:11;;;;;;;;;41.50;36.50;;;;;;;;4718763;30;46351;-60
2022/12/04 13:52:40;;;;;;;;;52.75;40.75;;;;;;;;4713042;30;45351;-60
2022/12/04 13:55:24;;;;;;;;;51.25;37.75;;;;;;;;4717940;30;45501;-60
2022/12/04 13:57:53;;;;;;;;;61.00;41.50;;;;;;;;4701750;30;45745;-60
2022/12/04 14:00:24;;;;;;;;;50.50;43.00;;;;;;;;4712934;30;46335;-60
2022/12/04 14:02:51;;;;;;;;;56.00;44.25;;;;;;;;4703875;30;45493;-60
2022/12/04 14:05:24;;;;;;;;;53.25;37.25;;;;;;;;4700346;30;45734;-60
2022/12/04 14:08:15;;;;;;;;;56.25;43.00;;;;;;;;4704886;30;45419;-60
2022/12/04 14:10:41;;;;;;;;;58.50;42.00;;;;;;;;4706160;30;45276;-60
2022/12/04 14:13:20;;;;;;;;;58.25;41.75;;;;;;;;4706710;30;45675;-60
2022/12/04 14:15:46;;;;;;;;;55.75;42.25;;;;;;;;4716933;30;45492;-61
2022/12/04 14:18:12;;;;;;;;;44.50;36.25;;;;;;;;4714757;30;45340;-60
2022/12/04 14:20:37;;;;;;;;;64.25;45.00;;;;;;;;4705179;30;46187;-60
2022/12/04 14:23:26;;;;;;;;;60.25;46.25;;;;;;;;4719238;30;45377;-60
2022/12/04 14:25:56;;;;;;;;;61.00;44.25;;;;;;;;4703319;30;45377;-60
2022/12/04 14:28:23;;;;;;;;;58.75;44.75;;;;;;;;4720830;30;45553;-60
2022/12/04 14:31:00;;;;;;;;;49.75;40.25;;;;;;;;4720258;30;46184;-60
2022/12/04 14:33:29;;;;;;;;;51.00;38.50;;;;;;;;4720013;30;45392;-60
2022/12/04 14:36:02;;;;;;;;;58.50;45.25;;;;;;;;4717406;30;45340;-60
2022/12/04 14:38:27;;;;;;;;;55.50;41.50;;;;;;;;4720029;30;45617;-61
2022/12/04 14:40:55;;;;;;;;;55.75;44.75;;;;;;;;4716090;30;46159;-61
2022/12/04 14:43:24;;;;;;;;;62.00;42.00;;;;;;;;4710017;30;45438;-61
2022/12/04 14:45:54;;;;;;;;;63.25;44.00;;;;;;;;4706647;30;45498;-61
2022/12/04 14:48:45;;;;;;;;;52.25;31.75;;;;;;;;4711109;30;45379;-62
2022/12/04 14:51:13;;;;;;;;;51.00;42.25;;;;;;;;4678294;30;46559;-61
2022/12/04 14:53:52;;;;;;;;;47.25;38.75;;;;;;;;4720773;30;46628;-62
2022/12/04 14:56:40;;;;;;;;;47.75;34.75;;;;;;;;4716250;30;45415;-62
2022/12/04 14:59:14;;;;;;;;;56.00;45.50;;;;;;;;4716872;30;45442;-61
2022/12/04 15:01:39;;;;;;;;;61.50;44.75;;;;;;;;4716529;30;45506;-61
2022/12/04 15:04:15;;;;;;;;;50.50;38.50;;;;;;;;4714658;30;45324;-61
2022/12/04 15:06:43;;;;;;;;;52.00;43.00;;;;;;;;4711407;30;45319;-62
2022/12/04 15:14:44;;;;;;;;;57.50;42.75;;;;;;;;4715930;30;45585;-62
2022/12/04 15:17:10;;;;;;;;;58.75;43.25;;;;;;;;4717168;30;45352;-62
2022/12/04 15:19:36;;;;;;;;;55.75;41.00;;;;;;;;4717837;30;45447;-62
2022/12/04 15:22:06;;;;;;;;;46.50;38.50;;;;;;;;4716643;30;46417;-62
2022/12/04 15:24:32;;;;;;;;;56.75;41.50;;;;;;;;4715970;30;45459;-62
2022/12/04 15:26:57;;;;;;;;;60.50;43.50;;;;;;;;4718963;30;45420;-62
2022/12/04 15:29:26;;;;;;;;;52.75;42.50;;;;;;;;4716392;30;45447;-62
2022/12/04 15:31:55;;;;;;;;;61.00;43.50;;;;;;;;4718906;30;45521;-62
2022/12/04 15:34:22;;;;;;;;;57.25;45.25;;;;;;;;4714253;30;45384;-62
2022/12/04 15:37:02;;;;;;;;;56.75;46.00;;;;;;;;4721131;30;45261;-62
2022/12/04 15:39:28;;;;;;;;;53.25;39.00;;;;;;;;4720059;30;45543;-62
2022/12/04 15:42:03;;;;;;;;;64.00;46.25;;;;;;;;4711698;30;46132;-62
2022/12/04 15:44:30;;;;;;;;;37.25;18.25;;;;;;;;4716515;30;45277;-61
2022/12/04 15:46:57;;;;;;;;;66.00;45.75;;;;;;;;4713261;30;45348;-61
2022/12/04 15:49:27;;;;;;;;;65.75;44.50;;;;;;;;4699810;30;45630;-61
2022/12/04 15:52:02;;;;;;;;;57.25;43.75;;;;;;;;4708793;30;46693;-61
2022/12/04 15:54:28;;;;;;;;;59.25;45.50;;;;;;;;4713879;30;45985;-62
2022/12/04 15:56:58;;;;;;;;;55.75;38.00;;;;;;;;4718216;30;45430;-61
2022/12/04 15:59:24;;;;;;;;;53.75;40.50;;;;;;;;4709800;30;45306;-61
2022/12/04 16:01:50;;;;;;;;;57.50;42.00;;;;;;;;4710060;30;45575;-62
2022/12/04 16:04:21;;;;;;;;;55.00;41.50;;;;;;;;4713828;30;45583;-62
2022/12/04 16:06:48;;;;;;;;;55.75;42.25;;;;;;;;4708374;30;45458;-61
2022/12/04 16:09:13;;;;;;;;;44.75;40.75;;;;;;;;4713221;30;45355;-61
2022/12/04 16:11:39;;;;;;;;;54.75;41.75;;;;;;;;4698765;30;46176;-61
2022/12/04 16:14:08;;;;;;;;;57.25;45.25;;;;;;;;4711075;30;45483;-61
2022/12/04 16:16:34;;;;;;;;;57.25;44.75;;;;;;;;4707739;30;45489;-61
2022/12/04 16:19:06;;;;;;;;;58.25;44.00;;;;;;;;4704577;30;45379;-61
2022/12/04 16:21:32;;;;;;;;;59.50;44.50;;;;;;;;4712905;30;45535;-61
2022/12/04 16:24:01;;;;;;;;;51.50;44.00;;;;;;;;4711057;30;45396;-61
2022/12/04 16:26:27;;;;;;;;;55.50;40.75;;;;;;;;4703026;30;45536;-61
2022/12/04 16:28:52;;;;;;;;;58.25;43.75;;;;;;;;4708992;30;45388;-61
2022/12/04 16:31:18;;;;;;;;;52.75;40.25;;;;;;;;4709622;30;46234;-62
2022/12/04 16:33:43;;;;;;;;;60.75;42.75;;;;;;;;4712240;30;46090;-62
2022/12/04 16:36:09;;;;;;;;;63.00;46.50;;;;;;;;4716209;30;45757;-62
2022/12/04 16:38:34;;;;;;;;;59.50;44.50;;;;;;;;4709124;30;45476;-62
2022/12/04 16:40:59;;;;;;;;;54.50;41.00;;;;;;;;4706537;30;46214;-62
2022/12/04 16:43:25;;;;;;;;;55.25;42.00;;;;;;;;4717715;30;45385;-62
2022/12/04 16:45:51;;;;;;;;;53.50;39.50;;;;;;;;4710970;30;45575;-62
2022/12/04 16:48:16;;;;;;;;;55.50;41.25;;;;;;;;4710077;30;45507;-62
2022/12/04 16:50:42;;;;;;;;;57.50;43.75;;;;;;;;4710930;30;45357;-62
2022/12/04 16:53:11;;;;;;;;;45.75;38.50;;;;;;;;4712966;30;45628;-61
2022/12/04 16:55:38;;;;;;;;;49.25;39.50;;;;;;;;4716500;30;45648;-62
2022/12/04 16:58:03;;;;;;;;;46.50;38.00;;;;;;;;4712258;30;45499;-62
2022/12/04 17:00:29;;;;;;;;;42.25;32.75;;;;;;;;4712870;30;46150;-61
2022/12/04 17:02:54;;;;;;;;;56.25;42.75;;;;;;;;4704950;30;45453;-62
2022/12/04 17:05:24;;;;;;;;;49.00;40.50;;;;;;;;4709797;30;45885;-61
2022/12/04 17:07:49;;;;;;;;;46.25;37.50;;;;;;;;4707798;30;45549;-61
2022/12/04 17:10:14;;;;;;;;;56.25;41.50;;;;;;;;4711268;30;45459;-62
2022/12/04 17:12:40;;;;;;;;;37.25;35.00;;;;;;;;4710684;30;45380;-61
2022/12/04 17:15:05;;;;;;;;;54.75;37.25;;;;;;;;4707669;30;45629;-61
2022/12/04 17:17:32;;;;;;;;;59.75;43.50;;;;;;;;4710007;30;45448;-61
2022/12/04 17:19:57;;;;;;;;;50.75;40.75;;;;;;;;4708611;30;46276;-60
2022/12/04 17:22:25;;;;;;;;;53.25;40.50;;;;;;;;4711437;30;45602;-60
2022/12/04 17:24:50;;;;;;;;;49.00;41.75;;;;;;;;4707305;30;45320;-59
2022/12/04 17:27:16;;;;;;;;;52.75;39.75;;;;;;;;4699343;30;45530;-60
2022/12/04 17:29:41;;;;;;;;;63.75;46.25;;;;;;;;4707974;30;46508;-60
2022/12/04 17:32:06;;;;;;;;;56.75;43.00;;;;;;;;4705927;30;45472;-60
2022/12/04 17:34:31;;;;;;;;;47.75;40.50;;;;;;;;4705564;30;45531;-60
2022/12/04 17:36:56;;;;;;;;;60.25;44.25;;;;;;;;4712073;30;45577;-60
2022/12/04 17:39:22;;;;;;;;;58.25;44.50;;;;;;;;4713493;30;46134;-60
2022/12/04 17:41:47;;;;;;;;;55.25;44.50;;;;;;;;4712269;30;45316;-60
2022/12/04 17:44:12;;;;;;;;;55.75;43.00;;;;;;;;4713664;30;45423;-60
2022/12/04 17:46:37;;;;;;;;;60.50;44.25;;;;;;;;4718829;30;45551;-60
2022/12/04 17:49:02;;;;;;;;;51.25;39.00;;;;;;;;4721975;30;46261;-59
2022/12/04 17:51:28;;;;;;;;;54.25;41.50;;;;;;;;4710357;30;45405;-60
2022/12/04 17:53:53;;;;;;;;;58.00;43.25;;;;;;;;4722746;30;45446;-60
2022/12/04 17:56:19;;;;;;;;;53.50;39.25;;;;;;;;4721800;30;45538;-60
2022/12/04 17:58:45;;;;;;;;;57.25;44.50;;;;;;;;4717190;30;45393;-60
2022/12/04 18:01:12;;;;;;;;;58.00;43.00;;;;;;;;4721286;30;45411;-60
2022/12/04 18:03:37;;;;;;;;;51.50;42.50;;;;;;;;4717347;30;47897;-61
2022/12/04 18:06:13;;;;;;;;;55.75;43.50;;;;;;;;4720131;30;45215;-59
2022/12/04 18:08:38;;;;;;;;;49.50;41.00;;;;;;;;4721785;30;45762;-61
2022/12/04 18:11:04;;;;;;;;;53.00;38.50;;;;;;;;4720268;30;45801;-59
2022/12/04 18:13:29;;;;;;;;;48.75;39.00;;;;;;;;4718586;30;45381;-59
2022/12/04 18:15:54;;;;;;;;;51.50;39.25;;;;;;;;4722844;30;45299;-60
2022/12/04 18:18:19;;;;;;;;;58.00;42.25;;;;;;;;4709525;30;45416;-59
2022/12/04 18:20:45;;;;;;;;;53.00;40.25;;;;;;;;4694026;30;45492;-60
2022/12/04 18:23:10;;;;;;;;;51.25;41.50;;;;;;;;4710426;30;45506;-60
2022/12/04 18:25:35;;;;;;;;;47.00;38.00;;;;;;;;4707920;30;45258;-60
2022/12/04 18:28:00;;;;;;;;;49.25;39.75;;;;;;;;4713166;30;46110;-60
2022/12/04 18:30:25;;;;;;;;;50.00;40.50;;;;;;;;4711996;30;45452;-60
2022/12/04 18:32:53;;;;;;;;;49.25;37.50;;;;;;;;4714092;30;46712;-60
2022/12/04 18:35:18;;;;;;;;;49.00;39.75;;;;;;;;4710428;30;45345;-60
2022/12/04 18:37:43;;;;;;;;;52.00;40.75;;;;;;;;4711116;30;45479;-59
2022/12/04 18:40:09;;;;;;;;;53.25;41.00;;;;;;;;4712625;30;45400;-65
2022/12/04 18:42:34;;;;;;;;;47.50;36.75;;;;;;;;4711794;30;45760;-65
2022/12/04 18:45:00;;;;;;;;;50.75;38.25;;;;;;;;4706450;30;45349;-66
2022/12/04 18:47:25;;;;;;;;;52.75;42.00;;;;;;;;4715250;30;45696;-66
2022/12/04 18:49:51;;;;;;;;;50.50;37.00;;;;;;;;4716513;30;45439;-66
2022/12/04 18:52:16;;;;;;;;;51.00;40.50;;;;;;;;4706313;30;45502;-65
2022/12/04 18:54:41;;;;;;;;;55.50;39.25;;;;;;;;4713032;30;45617;-67
2022/12/04 18:57:07;;;;;;;;;44.00;32.75;;;;;;;;4709576;30;45410;-66
2022/12/04 18:59:32;;;;;;;;;50.75;40.75;;;;;;;;4711495;30;45395;-66
2022/12/04 19:01:57;;;;;;;;;53.25;44.50;;;;;;;;4709808;30;45308;-66
2022/12/04 19:04:23;;;;;;;;;51.00;40.25;;;;;;;;4712000;30;45742;-66
2022/12/04 19:06:50;;;;;;;;;43.00;38.00;;;;;;;;4714985;30;46236;-66
2022/12/04 19:09:17;;;;;;;;;52.25;41.00;;;;;;;;4711448;30;47111;-65
2022/12/04 19:11:42;;;;;;;;;45.50;37.50;;;;;;;;4718258;30;45514;-66
2022/12/04 19:14:09;;;;;;;;;45.50;36.50;;;;;;;;4717010;30;45466;-65
2022/12/04 19:16:34;;;;;;;;;47.50;36.25;;;;;;;;4713456;30;46221;-65
2022/12/04 19:19:00;;;;;;;;;56.50;40.50;;;;;;;;4710887;30;45313;-65
2022/12/04 19:21:25;;;;;;;;;52.50;40.50;;;;;;;;4712128;30;45297;-65
2022/12/04 19:23:55;;;;;;;;;46.75;35.00;;;;;;;;4715791;30;45574;-65
2022/12/04 19:26:21;;;;;;;;;50.25;38.25;;;;;;;;4705337;30;46450;-65
2022/12/04 19:28:47;;;;;;;;;54.50;42.00;;;;;;;;4715799;30;45470;-66
2022/12/04 19:31:14;;;;;;;;;40.25;36.25;;;;;;;;4718079;30;45534;-66
2022/12/04 19:33:39;;;;;;;;;42.75;36.25;;;;;;;;4716804;30;45416;-67
2022/12/04 19:36:04;;;;;;;;;52.00;38.75;;;;;;;;4713527;30;45439;-68
2022/12/04 19:38:30;;;;;;;;;54.00;34.00;;;;;;;;4713882;30;45306;-66
2022/12/04 19:41:08;;;;;;;;;47.50;38.50;;;;;;;;4710723;30;45380;-66
2022/12/04 19:43:33;;;;;;;;;49.75;37.25;;;;;;;;4696348;30;45686;-66
2022/12/04 19:45:58;;;;;;;;;44.50;38.00;;;;;;;;4711531;30;46068;-66
2022/12/04 19:48:23;;;;;;;;;51.00;34.00;;;;;;;;4711476;30;45551;-66
2022/12/04 19:50:49;;;;;;;;;58.50;43.00;;;;;;;;4713479;30;45746;-66
2022/12/04 19:53:14;;;;;;;;;55.75;42.25;;;;;;;;4711472;30;45633;-66
2022/12/04 19:55:39;;;;;;;;;53.25;41.25;;;;;;;;4709613;30;46877;-66
2022/12/04 19:58:04;;;;;;;;;45.00;36.00;;;;;;;;4712225;30;45514;-66
2022/12/04 20:00:29;;;;;;;;;52.25;38.75;;;;;;;;4707124;30;45610;-66
2022/12/04 20:02:55;;;;;;;;;51.00;39.75;;;;;;;;4711761;30;45798;-67
2022/12/04 20:05:20;;;;;;;;;37.00;34.00;;;;;;;;4709485;30;45623;-66
2022/12/04 20:07:45;;;;;;;;;67.25;49.00;;;;;;;;4711502;30;45426;-66
2022/12/04 20:10:10;;;;;;;;;54.75;42.50;;;;;;;;4712057;30;45597;-66
2022/12/04 20:12:35;;;;;;;;;56.00;44.25;;;;;;;;4707653;30;45492;-66
2022/12/04 20:15:00;;;;;;;;;47.75;39.25;;;;;;;;4709623;30;47180;-66
2022/12/04 20:17:26;;;;;;;;;46.50;39.00;;;;;;;;4714965;30;45355;-66
2022/12/04 20:19:51;;;;;;;;;49.00;37.50;;;;;;;;4708986;30;45556;-67
2022/12/04 20:22:16;;;;;;;;;54.00;38.75;;;;;;;;4707400;30;45277;-67
2022/12/04 20:24:42;;;;;;;;;49.75;40.75;;;;;;;;4712102;30;46019;-67
2022/12/04 20:27:07;;;;;;;;;48.50;41.00;;;;;;;;4716515;30;45556;-67
2022/12/04 20:29:33;;;;;;;;;59.25;46.00;;;;;;;;4713913;30;45815;-67
2022/12/04 20:31:58;;;;;;;;;63.00;43.75;;;;;;;;4715054;30;45426;-67
2022/12/04 20:34:23;;;;;;;;;60.25;44.75;;;;;;;;4693636;30;47185;-67
2022/12/04 20:36:48;;;;;;;;;53.50;41.50;;;;;;;;4711193;30;45308;-67
2022/12/04 20:39:14;;;;;;;;;46.75;38.00;;;;;;;;4712209;30;45376;-67
2022/12/04 20:41:39;;;;;;;;;50.00;38.50;;;;;;;;4718301;30;45628;-67
2022/12/04 20:44:06;;;;;;;;;39.00;33.50;;;;;;;;4706695;30;45559;-67
2022/12/04 20:46:32;;;;;;;;;53.75;41.50;;;;;;;;4705623;30;45436;-67
2022/12/04 20:48:59;;;;;;;;;55.50;41.00;;;;;;;;4707843;30;45457;-67
2022/12/04 20:51:25;;;;;;;;;51.50;39.50;;;;;;;;4703869;30;45437;-68
2022/12/04 20:53:52;;;;;;;;;54.25;40.00;;;;;;;;4705425;30;45638;-68
2022/12/04 20:56:18;;;;;;;;;51.50;38.75;;;;;;;;4704442;30;45459;-68
2022/12/04 20:58:44;;;;;;;;;55.50;39.00;;;;;;;;4712469;30;45439;-68
2022/12/04 21:01:13;;;;;;;;;54.25;40.50;;;;;;;;4715687;30;45475;-68
2022/12/04 21:03:39;;;;;;;;;53.25;44.25;;;;;;;;4715016;30;46031;-67
2022/12/04 21:06:10;;;;;;;;;48.75;40.25;;;;;;;;4715411;30;45670;-68
2022/12/04 21:08:57;;;;;;;;;65.50;47.25;;;;;;;;4710367;30;45269;-68
2022/12/04 21:11:23;;;;;;;;;53.25;39.00;;;;;;;;4707577;30;45667;-68
2022/12/04 21:16:32;;;;;;;;;47.25;39.25;;;;;;;;4709177;30;45352;-67
2022/12/04 21:18:57;;;;;;;;;58.00;43.50;;;;;;;;4701859;30;45443;-67
2022/12/04 21:21:25;;;;;;;;;55.25;45.25;;;;;;;;4711074;30;45605;-68
2022/12/04 21:23:50;;;;;;;;;73.50;57.75;;;;;;;;4709169;30;45403;-68
2022/12/04 21:26:15;;;;;;;;;50.25;39.25;;;;;;;;4708476;30;45395;-67
2022/12/04 21:28:41;;;;;;;;;44.00;38.75;;;;;;;;4709063;30;45367;-67
2022/12/04 21:31:06;;;;;;;;;48.25;42.25;;;;;;;;4705759;30;45463;-67
2022/12/04 21:33:32;;;;;;;;;51.25;38.00;;;;;;;;4707874;30;46130;-67